sensor_id;sensor_type;location;lat;lon;timestamp;P1;durP1;ratioP1;P2;durP2;ratioP2
21299;SDS011;10809;49.476;11.016;2023-07-31T00:01:23;1.13;;;0.88;;
21299;SDS011;10809;49.476;11.016;2023-07-31T00:03:54;2.45;;;1.00;;
21299;SDS011;10809;49.476;11.016;2023-07-31T00:06:24;1.08;;;1.05;;
21299;SDS011;10809;49.476;11.016;2023-07-31T00:08:55;2.10;;;1.35;;
21299;SDS011;10809;49.476;11.016;2023-07-31T00:11:28;1.00;;;1.00;;
21299;SDS011;10809;49.476;11.016;2023-07-31T00:13:58;1.23;;;1.13;;
21299;SDS011;10809;49.476;11.016;2023-07-31T00:16:29;1.15;;;1.10;;
21299;SDS011;10809;49.476;11.016;2023-07-31T00:18:59;1.33;;;0.85;;
21299;SDS011;10809;49.476;11.016;2023-07-31T00:21:30;0.82;;;0.80;;
21299;SDS011;10809;49.476;11.016;2023-07-31T00:24:00;1.23;;;1.00;;
21299;SDS011;10809;49.476;11.016;2023-07-31T00:26:31;0.90;;;0.90;;
21299;SDS011;10809;49.476;11.016;2023-07-31T00:29:02;1.90;;;1.10;;
21299;SDS011;10809;49.476;11.016;2023-07-31T00:31:32;1.10;;;1.10;;
21299;SDS011;10809;49.476;11.016;2023-07-31T00:34:03;1.27;;;1.05;;
21299;SDS011;10809;49.476;11.016;2023-07-31T00:36:40;1.20;;;1.10;;
21299;SDS011;10809;49.476;11.016;2023-07-31T00:39:12;1.50;;;1.40;;
21299;SDS011;10809;49.476;11.016;2023-07-31T00:41:43;1.15;;;1.00;;
21299;SDS011;10809;49.476;11.016;2023-07-31T00:44:13;0.90;;;0.80;;
21299;SDS011;10809;49.476;11.016;2023-07-31T00:46:47;0.95;;;0.95;;
21299;SDS011;10809;49.476;11.016;2023-07-31T00:49:27;2.20;;;1.10;;
21299;SDS011;10809;49.476;11.016;2023-07-31T00:51:59;1.90;;;1.08;;
21299;SDS011;10809;49.476;11.016;2023-07-31T00:54:39;1.27;;;1.10;;
21299;SDS011;10809;49.476;11.016;2023-07-31T00:57:10;3.28;;;1.30;;
21299;SDS011;10809;49.476;11.016;2023-07-31T00:59:44;3.92;;;1.10;;
21299;SDS011;10809;49.476;11.016;2023-07-31T01:02:14;1.10;;;1.10;;
21299;SDS011;10809;49.476;11.016;2023-07-31T01:04:45;2.08;;;1.27;;
21299;SDS011;10809;49.476;11.016;2023-07-31T01:07:59;1.92;;;1.02;;
21299;SDS011;10809;49.476;11.016;2023-07-31T01:10:23;1.02;;;1.00;;
21299;SDS011;10809;49.476;11.016;2023-07-31T01:12:57;1.23;;;0.90;;
21299;SDS011;10809;49.476;11.016;2023-07-31T01:15:28;0.90;;;0.90;;
21299;SDS011;10809;49.476;11.016;2023-07-31T01:18:00;1.00;;;1.00;;
21299;SDS011;10809;49.476;11.016;2023-07-31T01:20:30;1.00;;;1.00;;
21299;SDS011;10809;49.476;11.016;2023-07-31T01:23:23;1.15;;;1.00;;
21299;SDS011;10809;49.476;11.016;2023-07-31T01:26:23;1.20;;;1.10;;
21299;SDS011;10809;49.476;11.016;2023-07-31T01:32:07;1.15;;;1.08;;
21299;SDS011;10809;49.476;11.016;2023-07-31T01:34:39;0.98;;;0.98;;
21299;SDS011;10809;49.476;11.016;2023-07-31T01:37:12;1.23;;;1.00;;
21299;SDS011;10809;49.476;11.016;2023-07-31T01:39:43;1.35;;;1.00;;
21299;SDS011;10809;49.476;11.016;2023-07-31T01:42:14;1.42;;;0.93;;
21299;SDS011;10809;49.476;11.016;2023-07-31T01:44:47;1.10;;;0.90;;
21299;SDS011;10809;49.476;11.016;2023-07-31T01:47:20;2.17;;;1.13;;
21299;SDS011;10809;49.476;11.016;2023-07-31T01:49:51;0.93;;;0.93;;
21299;SDS011;10809;49.476;11.016;2023-07-31T01:52:21;3.30;;;1.17;;
21299;SDS011;10809;49.476;11.016;2023-07-31T01:54:52;1.75;;;1.00;;
21299;SDS011;10809;49.476;11.016;2023-07-31T01:57:22;1.30;;;1.17;;
21299;SDS011;10809;49.476;11.016;2023-07-31T01:59:56;0.90;;;0.90;;
21299;SDS011;10809;49.476;11.016;2023-07-31T02:02:26;1.67;;;1.20;;
21299;SDS011;10809;49.476;11.016;2023-07-31T02:04:56;1.92;;;1.15;;
21299;SDS011;10809;49.476;11.016;2023-07-31T02:07:27;1.20;;;1.08;;
21299;SDS011;10809;49.476;11.016;2023-07-31T02:09:57;1.33;;;1.00;;
21299;SDS011;10809;49.476;11.016;2023-07-31T02:12:28;1.65;;;0.93;;
21299;SDS011;10809;49.476;11.016;2023-07-31T02:15:02;1.00;;;1.00;;
21299;SDS011;10809;49.476;11.016;2023-07-31T02:17:35;1.08;;;1.08;;
21299;SDS011;10809;49.476;11.016;2023-07-31T02:20:12;1.00;;;1.00;;
21299;SDS011;10809;49.476;11.016;2023-07-31T02:22:42;1.15;;;1.08;;
21299;SDS011;10809;49.476;11.016;2023-07-31T02:25:13;2.10;;;1.13;;
21299;SDS011;10809;49.476;11.016;2023-07-31T02:27:43;1.45;;;1.08;;
21299;SDS011;10809;49.476;11.016;2023-07-31T02:30:13;2.22;;;1.10;;
21299;SDS011;10809;49.476;11.016;2023-07-31T02:32:59;1.45;;;1.10;;
21299;SDS011;10809;49.476;11.016;2023-07-31T02:35:30;1.35;;;1.13;;
21299;SDS011;10809;49.476;11.016;2023-07-31T02:38:01;0.93;;;0.93;;
21299;SDS011;10809;49.476;11.016;2023-07-31T02:40:34;3.88;;;1.30;;
21299;SDS011;10809;49.476;11.016;2023-07-31T02:43:04;0.93;;;0.93;;
21299;SDS011;10809;49.476;11.016;2023-07-31T02:45:35;2.22;;;1.42;;
21299;SDS011;10809;49.476;11.016;2023-07-31T02:48:06;1.02;;;1.02;;
21299;SDS011;10809;49.476;11.016;2023-07-31T02:50:36;1.80;;;1.15;;
21299;SDS011;10809;49.476;11.016;2023-07-31T02:53:06;1.85;;;1.08;;
21299;SDS011;10809;49.476;11.016;2023-07-31T02:55:37;1.40;;;1.30;;
21299;SDS011;10809;49.476;11.016;2023-07-31T02:58:07;1.10;;;1.08;;
21299;SDS011;10809;49.476;11.016;2023-07-31T03:00:41;1.33;;;1.00;;
21299;SDS011;10809;49.476;11.016;2023-07-31T03:03:16;1.42;;;1.17;;
21299;SDS011;10809;49.476;11.016;2023-07-31T03:05:46;2.13;;;0.93;;
21299;SDS011;10809;49.476;11.016;2023-07-31T03:08:16;0.95;;;0.95;;
21299;SDS011;10809;49.476;11.016;2023-07-31T03:10:47;1.10;;;1.00;;
21299;SDS011;10809;49.476;11.016;2023-07-31T03:13:17;2.33;;;1.30;;
21299;SDS011;10809;49.476;11.016;2023-07-31T03:15:47;1.05;;;0.80;;
21299;SDS011;10809;49.476;11.016;2023-07-31T03:18:18;1.05;;;0.98;;
21299;SDS011;10809;49.476;11.016;2023-07-31T03:20:48;1.73;;;1.15;;
21299;SDS011;10809;49.476;11.016;2023-07-31T03:23:23;2.05;;;1.00;;
21299;SDS011;10809;49.476;11.016;2023-07-31T03:25:58;1.40;;;1.20;;
21299;SDS011;10809;49.476;11.016;2023-07-31T03:28:35;2.20;;;1.13;;
21299;SDS011;10809;49.476;11.016;2023-07-31T03:31:05;1.95;;;1.38;;
21299;SDS011;10809;49.476;11.016;2023-07-31T03:33:38;1.10;;;1.10;;
21299;SDS011;10809;49.476;11.016;2023-07-31T03:36:08;1.95;;;1.10;;
21299;SDS011;10809;49.476;11.016;2023-07-31T03:38:42;2.40;;;1.15;;
21299;SDS011;10809;49.476;11.016;2023-07-31T03:41:12;1.60;;;1.50;;
21299;SDS011;10809;49.476;11.016;2023-07-31T03:43:43;1.75;;;1.10;;
21299;SDS011;10809;49.476;11.016;2023-07-31T03:46:13;1.75;;;1.20;;
21299;SDS011;10809;49.476;11.016;2023-07-31T03:48:44;1.35;;;1.25;;
21299;SDS011;10809;49.476;11.016;2023-07-31T03:51:14;1.30;;;1.20;;
21299;SDS011;10809;49.476;11.016;2023-07-31T03:53:45;1.02;;;1.02;;
21299;SDS011;10809;49.476;11.016;2023-07-31T03:56:15;2.00;;;1.40;;
21299;SDS011;10809;49.476;11.016;2023-07-31T03:58:51;1.17;;;1.02;;
21299;SDS011;10809;49.476;11.016;2023-07-31T04:01:22;1.90;;;1.20;;
21299;SDS011;10809;49.476;11.016;2023-07-31T04:03:52;1.73;;;1.27;;
21299;SDS011;10809;49.476;11.016;2023-07-31T04:06:26;1.63;;;1.25;;
21299;SDS011;10809;49.476;11.016;2023-07-31T04:08:59;1.33;;;1.17;;
21299;SDS011;10809;49.476;11.016;2023-07-31T04:11:29;1.42;;;1.33;;
21299;SDS011;10809;49.476;11.016;2023-07-31T04:14:09;1.20;;;1.20;;
21299;SDS011;10809;49.476;11.016;2023-07-31T04:16:40;1.95;;;0.93;;
21299;SDS011;10809;49.476;11.016;2023-07-31T04:19:16;0.82;;;0.82;;
21299;SDS011;10809;49.476;11.016;2023-07-31T04:21:53;1.25;;;1.05;;
21299;SDS011;10809;49.476;11.016;2023-07-31T04:24:24;1.05;;;1.00;;
21299;SDS011;10809;49.476;11.016;2023-07-31T04:26:57;1.10;;;1.10;;
21299;SDS011;10809;49.476;11.016;2023-07-31T04:29:28;1.10;;;0.98;;
21299;SDS011;10809;49.476;11.016;2023-07-31T04:31:58;1.35;;;1.30;;
21299;SDS011;10809;49.476;11.016;2023-07-31T04:34:28;1.48;;;1.13;;
21299;SDS011;10809;49.476;11.016;2023-07-31T04:36:59;1.20;;;1.05;;
21299;SDS011;10809;49.476;11.016;2023-07-31T04:39:29;1.20;;;1.10;;
21299;SDS011;10809;49.476;11.016;2023-07-31T04:42:00;2.35;;;1.30;;
21299;SDS011;10809;49.476;11.016;2023-07-31T04:44:30;1.00;;;0.95;;
21299;SDS011;10809;49.476;11.016;2023-07-31T04:47:00;1.20;;;1.10;;
21299;SDS011;10809;49.476;11.016;2023-07-31T04:49:32;5.40;;;1.17;;
21299;SDS011;10809;49.476;11.016;2023-07-31T04:52:03;1.38;;;1.27;;
21299;SDS011;10809;49.476;11.016;2023-07-31T04:54:37;3.17;;;1.30;;
21299;SDS011;10809;49.476;11.016;2023-07-31T04:57:07;2.10;;;1.17;;
21299;SDS011;10809;49.476;11.016;2023-07-31T04:59:46;2.65;;;1.25;;
21299;SDS011;10809;49.476;11.016;2023-07-31T05:02:17;4.32;;;1.50;;
21299;SDS011;10809;49.476;11.016;2023-07-31T05:04:50;1.88;;;1.50;;
21299;SDS011;10809;49.476;11.016;2023-07-31T05:07:21;1.58;;;1.23;;
21299;SDS011;10809;49.476;11.016;2023-07-31T05:09:54;1.38;;;1.27;;
21299;SDS011;10809;49.476;11.016;2023-07-31T05:12:24;1.38;;;1.27;;
21299;SDS011;10809;49.476;11.016;2023-07-31T05:14:55;1.33;;;1.10;;
21299;SDS011;10809;49.476;11.016;2023-07-31T05:17:25;2.97;;;1.10;;
21299;SDS011;10809;49.476;11.016;2023-07-31T05:19:55;1.02;;;1.02;;
21299;SDS011;10809;49.476;11.016;2023-07-31T05:22:26;1.38;;;1.17;;
21299;SDS011;10809;49.476;11.016;2023-07-31T05:24:56;1.60;;;1.25;;
21299;SDS011;10809;49.476;11.016;2023-07-31T05:27:26;1.50;;;1.10;;
21299;SDS011;10809;49.476;11.016;2023-07-31T05:30:00;1.70;;;1.30;;
21299;SDS011;10809;49.476;11.016;2023-07-31T05:32:30;1.50;;;1.42;;
21299;SDS011;10809;49.476;11.016;2023-07-31T05:35:01;1.02;;;1.02;;
21299;SDS011;10809;49.476;11.016;2023-07-31T05:37:31;1.38;;;1.15;;
21299;SDS011;10809;49.476;11.016;2023-07-31T05:40:05;1.77;;;1.27;;
21299;SDS011;10809;49.476;11.016;2023-07-31T05:42:35;1.30;;;1.20;;
21299;SDS011;10809;49.476;11.016;2023-07-31T05:45:08;2.67;;;1.30;;
21299;SDS011;10809;49.476;11.016;2023-07-31T05:47:39;1.00;;;0.95;;
21299;SDS011;10809;49.476;11.016;2023-07-31T05:50:10;1.15;;;1.00;;
21299;SDS011;10809;49.476;11.016;2023-07-31T05:52:40;1.33;;;1.13;;
21299;SDS011;10809;49.476;11.016;2023-07-31T05:55:10;1.38;;;1.27;;
21299;SDS011;10809;49.476;11.016;2023-07-31T05:57:41;1.83;;;1.17;;
21299;SDS011;10809;49.476;11.016;2023-07-31T06:00:11;1.42;;;1.30;;
21299;SDS011;10809;49.476;11.016;2023-07-31T06:02:42;1.05;;;1.05;;
21299;SDS011;10809;49.476;11.016;2023-07-31T06:05:16;1.35;;;1.25;;
21299;SDS011;10809;49.476;11.016;2023-07-31T06:07:46;1.27;;;1.10;;
21299;SDS011;10809;49.476;11.016;2023-07-31T06:10:16;1.58;;;1.13;;
21299;SDS011;10809;49.476;11.016;2023-07-31T06:12:46;1.30;;;1.20;;
21299;SDS011;10809;49.476;11.016;2023-07-31T06:15:17;3.55;;;1.55;;
21299;SDS011;10809;49.476;11.016;2023-07-31T06:17:49;1.83;;;1.63;;
21299;SDS011;10809;49.476;11.016;2023-07-31T06:20:19;1.40;;;1.30;;
21299;SDS011;10809;49.476;11.016;2023-07-31T06:22:50;2.10;;;1.40;;
21299;SDS011;10809;49.476;11.016;2023-07-31T06:25:20;1.50;;;1.35;;
21299;SDS011;10809;49.476;11.016;2023-07-31T06:27:53;2.05;;;1.52;;
21299;SDS011;10809;49.476;11.016;2023-07-31T06:30:24;3.10;;;1.50;;
21299;SDS011;10809;49.476;11.016;2023-07-31T06:32:54;1.50;;;1.40;;
21299;SDS011;10809;49.476;11.016;2023-07-31T06:35:24;3.00;;;1.45;;
21299;SDS011;10809;49.476;11.016;2023-07-31T06:37:58;1.35;;;1.25;;
21299;SDS011;10809;49.476;11.016;2023-07-31T06:40:34;1.70;;;1.58;;
21299;SDS011;10809;49.476;11.016;2023-07-31T06:43:05;2.63;;;1.52;;
21299;SDS011;10809;49.476;11.016;2023-07-31T06:45:39;1.73;;;1.63;;
21299;SDS011;10809;49.476;11.016;2023-07-31T06:48:09;1.90;;;1.80;;
21299;SDS011;10809;49.476;11.016;2023-07-31T06:50:39;1.58;;;1.48;;
21299;SDS011;10809;49.476;11.016;2023-07-31T06:53:10;2.05;;;1.70;;
21299;SDS011;10809;49.476;11.016;2023-07-31T06:55:40;3.30;;;1.80;;
21299;SDS011;10809;49.476;11.016;2023-07-31T06:58:11;1.77;;;1.50;;
21299;SDS011;10809;49.476;11.016;2023-07-31T07:00:41;1.25;;;1.25;;
21299;SDS011;10809;49.476;11.016;2023-07-31T07:03:11;1.83;;;1.73;;
21299;SDS011;10809;49.476;11.016;2023-07-31T07:05:44;1.23;;;1.23;;
21299;SDS011;10809;49.476;11.016;2023-07-31T07:08:15;2.20;;;1.73;;
21299;SDS011;10809;49.476;11.016;2023-07-31T07:10:45;2.85;;;1.73;;
21299;SDS011;10809;49.476;11.016;2023-07-31T07:13:16;1.63;;;1.52;;
21299;SDS011;10809;49.476;11.016;2023-07-31T07:15:48;2.38;;;1.60;;
21299;SDS011;10809;49.476;11.016;2023-07-31T07:18:19;1.88;;;1.77;;
21299;SDS011;10809;49.476;11.016;2023-07-31T07:20:54;2.63;;;1.85;;
21299;SDS011;10809;49.476;11.016;2023-07-31T07:27:17;2.15;;;1.55;;
21299;SDS011;10809;49.476;11.016;2023-07-31T07:29:50;1.92;;;1.83;;
21299;SDS011;10809;49.476;11.016;2023-07-31T07:32:22;1.83;;;1.80;;
21299;SDS011;10809;49.476;11.016;2023-07-31T07:34:53;3.85;;;2.08;;
21299;SDS011;10809;49.476;11.016;2023-07-31T07:37:23;3.35;;;1.73;;
21299;SDS011;10809;49.476;11.016;2023-07-31T07:39:53;1.80;;;1.70;;
21299;SDS011;10809;49.476;11.016;2023-07-31T07:42:24;2.03;;;1.92;;
21299;SDS011;10809;49.476;11.016;2023-07-31T07:44:54;1.70;;;1.60;;
21299;SDS011;10809;49.476;11.016;2023-07-31T07:47:24;1.92;;;1.83;;
21299;SDS011;10809;49.476;11.016;2023-07-31T07:49:58;1.70;;;1.60;;
21299;SDS011;10809;49.476;11.016;2023-07-31T07:52:28;2.20;;;1.83;;
21299;SDS011;10809;49.476;11.016;2023-07-31T07:54:58;2.47;;;1.83;;
21299;SDS011;10809;49.476;11.016;2023-07-31T07:57:33;1.50;;;1.42;;
21299;SDS011;10809;49.476;11.016;2023-07-31T08:00:10;1.95;;;1.77;;
21299;SDS011;10809;49.476;11.016;2023-07-31T08:02:49;2.05;;;1.90;;
21299;SDS011;10809;49.476;11.016;2023-07-31T08:05:19;2.15;;;1.73;;
21299;SDS011;10809;49.476;11.016;2023-07-31T08:07:50;1.77;;;1.67;;
21299;SDS011;10809;49.476;11.016;2023-07-31T08:10:20;1.88;;;1.77;;
21299;SDS011;10809;49.476;11.016;2023-07-31T08:12:50;1.85;;;1.75;;
21299;SDS011;10809;49.476;11.016;2023-07-31T08:15:21;2.58;;;1.92;;
21299;SDS011;10809;49.476;11.016;2023-07-31T08:17:51;3.70;;;1.98;;
21299;SDS011;10809;49.476;11.016;2023-07-31T08:20:26;3.60;;;1.88;;
21299;SDS011;10809;49.476;11.016;2023-07-31T08:23:05;2.33;;;2.15;;
21299;SDS011;10809;49.476;11.016;2023-07-31T08:25:36;2.05;;;1.95;;
21299;SDS011;10809;49.476;11.016;2023-07-31T08:28:07;2.25;;;1.90;;
21299;SDS011;10809;49.476;11.016;2023-07-31T08:30:37;1.80;;;1.67;;
21299;SDS011;10809;49.476;11.016;2023-07-31T08:33:08;2.00;;;1.90;;
21299;SDS011;10809;49.476;11.016;2023-07-31T08:35:41;3.15;;;2.30;;
21299;SDS011;10809;49.476;11.016;2023-07-31T08:38:12;2.70;;;2.50;;
21299;SDS011;10809;49.476;11.016;2023-07-31T08:40:42;2.03;;;1.92;;
21299;SDS011;10809;49.476;11.016;2023-07-31T08:43:12;2.00;;;1.90;;
21299;SDS011;10809;49.476;11.016;2023-07-31T08:45:43;2.72;;;2.47;;
21299;SDS011;10809;49.476;11.016;2023-07-31T08:48:17;2.50;;;2.30;;
21299;SDS011;10809;49.476;11.016;2023-07-31T08:50:48;2.15;;;2.05;;
21299;SDS011;10809;49.476;11.016;2023-07-31T08:53:18;2.38;;;2.28;;
21299;SDS011;10809;49.476;11.016;2023-07-31T08:55:49;3.33;;;2.30;;
21299;SDS011;10809;49.476;11.016;2023-07-31T08:58:20;2.53;;;2.42;;
21299;SDS011;10809;49.476;11.016;2023-07-31T09:00:51;2.08;;;1.92;;
21299;SDS011;10809;49.476;11.016;2023-07-31T09:03:23;2.72;;;2.53;;
21299;SDS011;10809;49.476;11.016;2023-07-31T09:05:55;2.38;;;2.20;;
21299;SDS011;10809;49.476;11.016;2023-07-31T09:08:26;2.97;;;2.65;;
21299;SDS011;10809;49.476;11.016;2023-07-31T09:11:01;2.50;;;2.30;;
21299;SDS011;10809;49.476;11.016;2023-07-31T09:13:35;2.47;;;2.38;;
21299;SDS011;10809;49.476;11.016;2023-07-31T09:16:08;2.92;;;2.50;;
21299;SDS011;10809;49.476;11.016;2023-07-31T09:18:52;3.35;;;2.58;;
21299;SDS011;10809;49.476;11.016;2023-07-31T09:21:29;3.30;;;2.65;;
21299;SDS011;10809;49.476;11.016;2023-07-31T09:24:00;2.70;;;2.60;;
21299;SDS011;10809;49.476;11.016;2023-07-31T09:26:36;2.72;;;2.60;;
21299;SDS011;10809;49.476;11.016;2023-07-31T09:29:07;2.95;;;2.75;;
21299;SDS011;10809;49.476;11.016;2023-07-31T09:31:48;2.80;;;2.70;;
21299;SDS011;10809;49.476;11.016;2023-07-31T09:37:21;2.75;;;2.60;;
21299;SDS011;10809;49.476;11.016;2023-07-31T09:39:51;3.50;;;2.55;;
21299;SDS011;10809;49.476;11.016;2023-07-31T09:42:25;2.55;;;2.35;;
21299;SDS011;10809;49.476;11.016;2023-07-31T09:45:12;2.80;;;2.50;;
21299;SDS011;10809;49.476;11.016;2023-07-31T09:47:46;3.00;;;2.80;;
21299;SDS011;10809;49.476;11.016;2023-07-31T09:50:20;2.45;;;2.35;;
21299;SDS011;10809;49.476;11.016;2023-07-31T09:52:55;2.70;;;2.50;;
21299;SDS011;10809;49.476;11.016;2023-07-31T09:55:25;3.35;;;2.38;;
21299;SDS011;10809;49.476;11.016;2023-07-31T09:57:56;2.78;;;2.58;;
21299;SDS011;10809;49.476;11.016;2023-07-31T10:00:30;3.20;;;3.00;;
21299;SDS011;10809;49.476;11.016;2023-07-31T10:03:03;2.55;;;2.35;;
21299;SDS011;10809;49.476;11.016;2023-07-31T10:05:43;3.08;;;2.45;;
21299;SDS011;10809;49.476;11.016;2023-07-31T10:08:19;2.70;;;2.50;;
21299;SDS011;10809;49.476;11.016;2023-07-31T10:10:59;2.60;;;2.50;;
21299;SDS011;10809;49.476;11.016;2023-07-31T10:13:35;2.38;;;2.28;;
21299;SDS011;10809;49.476;11.016;2023-07-31T10:16:07;2.40;;;2.30;;
21299;SDS011;10809;49.476;11.016;2023-07-31T10:18:38;2.42;;;2.33;;
21299;SDS011;10809;49.476;11.016;2023-07-31T10:21:13;2.72;;;2.53;;
21299;SDS011;10809;49.476;11.016;2023-07-31T10:23:44;2.13;;;2.03;;
21299;SDS011;10809;49.476;11.016;2023-07-31T10:26:16;2.85;;;2.70;;
21299;SDS011;10809;49.476;11.016;2023-07-31T10:28:49;2.53;;;2.33;;
21299;SDS011;10809;49.476;11.016;2023-07-31T10:31:22;2.00;;;1.90;;
21299;SDS011;10809;49.476;11.016;2023-07-31T10:33:54;2.20;;;2.10;;
21299;SDS011;10809;49.476;11.016;2023-07-31T10:36:27;2.25;;;2.15;;
21299;SDS011;10809;49.476;11.016;2023-07-31T10:38:57;3.05;;;2.60;;
21299;SDS011;10809;49.476;11.016;2023-07-31T10:41:28;3.03;;;2.80;;
21299;SDS011;10809;49.476;11.016;2023-07-31T10:44:04;2.60;;;2.40;;
21299;SDS011;10809;49.476;11.016;2023-07-31T10:46:37;2.50;;;2.38;;
21299;SDS011;10809;49.476;11.016;2023-07-31T10:49:12;2.53;;;2.33;;
21299;SDS011;10809;49.476;11.016;2023-07-31T10:51:55;2.83;;;2.63;;
21299;SDS011;10809;49.476;11.016;2023-07-31T10:54:26;2.92;;;2.55;;
21299;SDS011;10809;49.476;11.016;2023-07-31T10:56:57;2.05;;;1.95;;
21299;SDS011;10809;49.476;11.016;2023-07-31T10:59:37;5.43;;;2.50;;
21299;SDS011;10809;49.476;11.016;2023-07-31T11:02:07;2.10;;;2.10;;
21299;SDS011;10809;49.476;11.016;2023-07-31T11:05:09;2.17;;;2.08;;
21299;SDS011;10809;49.476;11.016;2023-07-31T11:07:46;2.75;;;2.50;;
21299;SDS011;10809;49.476;11.016;2023-07-31T11:10:18;2.90;;;2.80;;
21299;SDS011;10809;49.476;11.016;2023-07-31T11:12:49;3.03;;;2.50;;
21299;SDS011;10809;49.476;11.016;2023-07-31T11:15:19;2.80;;;2.47;;
21299;SDS011;10809;49.476;11.016;2023-07-31T11:17:50;2.78;;;2.67;;
21299;SDS011;10809;49.476;11.016;2023-07-31T11:20:20;2.72;;;2.47;;
21299;SDS011;10809;49.476;11.016;2023-07-31T11:22:51;2.80;;;2.60;;
21299;SDS011;10809;49.476;11.016;2023-07-31T11:25:21;2.45;;;2.35;;
21299;SDS011;10809;49.476;11.016;2023-07-31T11:27:52;2.83;;;2.63;;
21299;SDS011;10809;49.476;11.016;2023-07-31T11:30:27;3.20;;;2.90;;
21299;SDS011;10809;49.476;11.016;2023-07-31T11:32:57;2.58;;;2.47;;
21299;SDS011;10809;49.476;11.016;2023-07-31T11:35:31;2.40;;;2.30;;
21299;SDS011;10809;49.476;11.016;2023-07-31T11:38:03;2.15;;;2.05;;
21299;SDS011;10809;49.476;11.016;2023-07-31T11:40:41;2.65;;;2.55;;
21299;SDS011;10809;49.476;11.016;2023-07-31T11:43:12;2.55;;;2.35;;
21299;SDS011;10809;49.476;11.016;2023-07-31T11:45:47;2.97;;;2.60;;
21299;SDS011;10809;49.476;11.016;2023-07-31T11:48:22;2.83;;;2.55;;
21299;SDS011;10809;49.476;11.016;2023-07-31T11:51:00;2.50;;;2.40;;
21299;SDS011;10809;49.476;11.016;2023-07-31T11:53:43;2.28;;;2.15;;
21299;SDS011;10809;49.476;11.016;2023-07-31T11:56:18;3.70;;;2.75;;
21299;SDS011;10809;49.476;11.016;2023-07-31T11:58:55;2.03;;;1.77;;
21299;SDS011;10809;49.476;11.016;2023-07-31T12:01:28;2.10;;;2.00;;
21299;SDS011;10809;49.476;11.016;2023-07-31T12:04:00;2.58;;;2.38;;
21299;SDS011;10809;49.476;11.016;2023-07-31T12:06:34;2.53;;;2.28;;
21299;SDS011;10809;49.476;11.016;2023-07-31T12:09:05;2.83;;;2.10;;
21299;SDS011;10809;49.476;11.016;2023-07-31T12:11:43;2.50;;;2.22;;
21299;SDS011;10809;49.476;11.016;2023-07-31T12:14:21;2.65;;;2.47;;
21299;SDS011;10809;49.476;11.016;2023-07-31T12:17:17;2.75;;;2.35;;
21299;SDS011;10809;49.476;11.016;2023-07-31T12:19:51;2.75;;;2.35;;
21299;SDS011;10809;49.476;11.016;2023-07-31T12:22:22;2.78;;;2.58;;
21299;SDS011;10809;49.476;11.016;2023-07-31T12:24:53;2.22;;;2.13;;
21299;SDS011;10809;49.476;11.016;2023-07-31T12:27:24;2.90;;;2.70;;
21299;SDS011;10809;49.476;11.016;2023-07-31T12:30:03;2.30;;;2.10;;
21299;SDS011;10809;49.476;11.016;2023-07-31T12:32:34;2.70;;;2.50;;
21299;SDS011;10809;49.476;11.016;2023-07-31T12:35:06;2.58;;;2.40;;
21299;SDS011;10809;49.476;11.016;2023-07-31T12:37:36;3.33;;;2.78;;
21299;SDS011;10809;49.476;11.016;2023-07-31T12:40:08;2.50;;;2.33;;
21299;SDS011;10809;49.476;11.016;2023-07-31T12:42:40;2.75;;;2.65;;
21299;SDS011;10809;49.476;11.016;2023-07-31T12:45:11;2.55;;;2.40;;
21299;SDS011;10809;49.476;11.016;2023-07-31T12:47:42;2.53;;;2.35;;
21299;SDS011;10809;49.476;11.016;2023-07-31T12:50:12;4.00;;;2.67;;
21299;SDS011;10809;49.476;11.016;2023-07-31T12:52:43;2.50;;;2.33;;
21299;SDS011;10809;49.476;11.016;2023-07-31T12:55:13;2.92;;;2.70;;
21299;SDS011;10809;49.476;11.016;2023-07-31T12:57:44;2.28;;;2.17;;
21299;SDS011;10809;49.476;11.016;2023-07-31T13:00:14;2.33;;;2.22;;
21299;SDS011;10809;49.476;11.016;2023-07-31T13:02:45;1.88;;;1.77;;
21299;SDS011;10809;49.476;11.016;2023-07-31T13:05:15;3.25;;;2.45;;
21299;SDS011;10809;49.476;11.016;2023-07-31T13:07:46;2.55;;;2.45;;
21299;SDS011;10809;49.476;11.016;2023-07-31T13:10:21;2.55;;;2.35;;
21299;SDS011;10809;49.476;11.016;2023-07-31T13:12:52;2.42;;;2.25;;
21299;SDS011;10809;49.476;11.016;2023-07-31T13:15:23;3.00;;;2.80;;
21299;SDS011;10809;49.476;11.016;2023-07-31T13:17:54;2.25;;;2.15;;
21299;SDS011;10809;49.476;11.016;2023-07-31T13:20:25;6.32;;;2.30;;
21299;SDS011;10809;49.476;11.016;2023-07-31T13:22:56;2.75;;;2.55;;
21299;SDS011;10809;49.476;11.016;2023-07-31T13:25:26;2.25;;;2.15;;
21299;SDS011;10809;49.476;11.016;2023-07-31T13:27:57;2.42;;;2.20;;
21299;SDS011;10809;49.476;11.016;2023-07-31T13:30:28;2.15;;;2.05;;
21299;SDS011;10809;49.476;11.016;2023-07-31T13:32:58;2.70;;;2.50;;
21299;SDS011;10809;49.476;11.016;2023-07-31T13:35:28;2.25;;;2.10;;
21299;SDS011;10809;49.476;11.016;2023-07-31T13:38:01;3.38;;;3.17;;
21299;SDS011;10809;49.476;11.016;2023-07-31T13:40:38;2.28;;;2.17;;
21299;SDS011;10809;49.476;11.016;2023-07-31T13:43:08;2.70;;;2.60;;
21299;SDS011;10809;49.476;11.016;2023-07-31T13:45:38;2.60;;;2.42;;
21299;SDS011;10809;49.476;11.016;2023-07-31T13:48:09;3.25;;;3.03;;
21299;SDS011;10809;49.476;11.016;2023-07-31T13:50:39;2.95;;;2.75;;
21299;SDS011;10809;49.476;11.016;2023-07-31T13:53:10;2.45;;;2.35;;
21299;SDS011;10809;49.476;11.016;2023-07-31T13:55:40;2.72;;;2.53;;
21299;SDS011;10809;49.476;11.016;2023-07-31T13:58:14;2.80;;;2.60;;
21299;SDS011;10809;49.476;11.016;2023-07-31T14:00:44;3.08;;;2.88;;
21299;SDS011;10809;49.476;11.016;2023-07-31T14:03:15;2.78;;;2.58;;
21299;SDS011;10809;49.476;11.016;2023-07-31T14:05:45;2.53;;;2.42;;
21299;SDS011;10809;49.476;11.016;2023-07-31T14:08:15;3.25;;;3.05;;
21299;SDS011;10809;49.476;11.016;2023-07-31T14:10:46;3.50;;;3.25;;
21299;SDS011;10809;49.476;11.016;2023-07-31T14:13:19;3.05;;;2.80;;
21299;SDS011;10809;49.476;11.016;2023-07-31T14:15:50;2.97;;;2.78;;
21299;SDS011;10809;49.476;11.016;2023-07-31T14:18:20;2.60;;;2.40;;
21299;SDS011;10809;49.476;11.016;2023-07-31T14:20:51;2.53;;;2.42;;
21299;SDS011;10809;49.476;11.016;2023-07-31T14:23:28;2.95;;;2.75;;
21299;SDS011;10809;49.476;11.016;2023-07-31T14:25:58;2.83;;;2.63;;
21299;SDS011;10809;49.476;11.016;2023-07-31T14:28:29;2.72;;;2.60;;
21299;SDS011;10809;49.476;11.016;2023-07-31T14:31:03;2.28;;;2.17;;
21299;SDS011;10809;49.476;11.016;2023-07-31T14:33:36;2.35;;;2.25;;
21299;SDS011;10809;49.476;11.016;2023-07-31T14:36:07;3.40;;;2.95;;
21299;SDS011;10809;49.476;11.016;2023-07-31T14:38:37;2.78;;;2.58;;
21299;SDS011;10809;49.476;11.016;2023-07-31T14:41:08;3.05;;;2.70;;
21299;SDS011;10809;49.476;11.016;2023-07-31T14:43:41;3.58;;;2.72;;
21299;SDS011;10809;49.476;11.016;2023-07-31T14:46:15;3.05;;;2.85;;
21299;SDS011;10809;49.476;11.016;2023-07-31T14:48:45;3.15;;;2.85;;
21299;SDS011;10809;49.476;11.016;2023-07-31T14:51:16;2.88;;;2.55;;
21299;SDS011;10809;49.476;11.016;2023-07-31T14:53:47;2.80;;;2.58;;
21299;SDS011;10809;49.476;11.016;2023-07-31T14:56:18;2.85;;;2.65;;
21299;SDS011;10809;49.476;11.016;2023-07-31T14:58:48;3.17;;;2.92;;
21299;SDS011;10809;49.476;11.016;2023-07-31T15:01:22;2.78;;;2.58;;
21299;SDS011;10809;49.476;11.016;2023-07-31T15:03:55;3.00;;;2.80;;
21299;SDS011;10809;49.476;11.016;2023-07-31T15:06:26;2.92;;;2.72;;
21299;SDS011;10809;49.476;11.016;2023-07-31T15:08:56;2.80;;;2.60;;
21299;SDS011;10809;49.476;11.016;2023-07-31T15:11:26;2.47;;;2.38;;
21299;SDS011;10809;49.476;11.016;2023-07-31T15:13:57;2.67;;;2.50;;